Time;durP1;ratioP1;P1;durP2;ratioP2;P2;SDS_P1;SDS_P2;PMS_P1;PMS_P2;Temp;Humidity;BMP_temperature;BMP_pressure;BME280_temperature;BME280_humidity;BME280_pressure;Samples;Min_cycle;Max_cycle;Signal;HPM_P1;HPM_P2
2022/08/30 00:02:28;;;;;;;7.25;3.55;;;;;;;-144.48;100.00;62369.91;4997866;28;20057;-70
2022/08/30 00:04:53;;;;;;;11.60;3.67;;;;;;;-144.48;100.00;62369.91;5016880;28;20021;-70
2022/08/30 00:07:19;;;;;;;12.05;4.25;;;;;;;-144.48;100.00;62369.91;5020733;28;20033;-71
2022/08/30 00:09:44;;;;;;;7.85;3.55;;;;;;;-144.48;100.00;62369.91;5008954;28;20029;-71
2022/08/30 00:12:10;;;;;;;12.50;3.92;;;;;;;-144.48;100.00;62369.91;5016875;28;20017;-69
2022/08/30 00:14:36;;;;;;;7.85;3.00;;;;;;;-144.48;100.00;62369.91;5014444;28;20034;-71
2022/08/30 00:17:01;;;;;;;12.40;3.10;;;;;;;-144.48;100.00;62369.91;5016312;28;20479;-70
2022/08/30 00:19:26;;;;;;;8.23;3.38;;;;;;;-144.48;100.00;62369.91;5028614;28;20075;-70
2022/08/30 00:21:52;;;;;;;7.88;3.88;;;;;;;-144.48;100.00;62369.91;5021929;28;20045;-70
2022/08/30 00:24:17;;;;;;;9.10;3.65;;;;;;;-144.48;100.00;62369.91;5020911;28;20036;-69
2022/08/30 00:26:43;;;;;;;10.30;4.07;;;;;;;-144.48;100.00;62369.91;5031292;28;20021;-72
2022/08/30 00:29:08;;;;;;;8.13;3.65;;;;;;;-144.48;100.00;62369.91;5019164;28;20045;-71
2022/08/30 00:31:33;;;;;;;13.55;4.05;;;;;;;-144.48;100.00;62369.91;5025592;28;20484;-68
2022/08/30 00:33:59;;;;;;;6.55;3.15;;;;;;;-144.48;100.00;62369.91;5012969;28;20029;-70
2022/08/30 00:36:24;;;;;;;11.15;3.85;;;;;;;-144.48;100.00;62369.91;5014137;28;20029;-69
2022/08/30 00:38:49;;;;;;;10.30;3.55;;;;;;;-144.48;100.00;62369.91;5012399;28;20310;-69
2022/08/30 00:41:15;;;;;;;13.73;3.78;;;;;;;-144.48;100.00;62369.91;5031371;28;20107;-70
2022/08/30 00:43:41;;;;;;;14.35;3.67;;;;;;;-144.48;100.00;62369.91;5019535;28;20053;-71
2022/08/30 00:46:07;;;;;;;9.00;3.70;;;;;;;-144.48;100.00;62369.91;5004934;28;20130;-71
2022/08/30 00:48:37;;;;;;;9.15;3.95;;;;;;;-144.48;100.00;62369.91;5018153;28;20369;-69
2022/08/30 00:51:06;;;;;;;8.70;4.28;;;;;;;-144.48;100.00;62369.91;5012403;28;20033;-68
2022/08/30 00:53:36;;;;;;;12.80;4.43;;;;;;;-144.48;100.00;62369.91;5025220;28;20029;-70
2022/08/30 00:56:04;;;;;;;12.77;4.13;;;;;;;-144.48;100.00;62369.91;5021227;28;20030;-71
2022/08/30 00:58:40;;;;;;;11.10;3.90;;;;;;;-144.48;100.00;62369.91;5015640;28;20033;-69
2022/08/30 01:01:08;;;;;;;7.90;3.70;;;;;;;-144.48;100.00;62369.91;5022440;28;20108;-74
2022/08/30 01:03:35;;;;;;;8.57;4.10;;;;;;;-144.48;100.00;62369.91;5031373;28;20022;-70
2022/08/30 01:06:01;;;;;;;10.98;3.60;;;;;;;-144.48;100.00;62369.91;5020869;28;20065;-71
2022/08/30 01:08:27;;;;;;;10.57;4.55;;;;;;;-144.48;100.00;62369.91;5029137;28;20108;-71
2022/08/30 01:10:56;;;;;;;8.93;3.88;;;;;;;-144.48;100.00;62369.91;5031971;28;20108;-71
2022/08/30 01:13:23;;;;;;;10.10;3.78;;;;;;;-144.48;100.00;62369.91;5014270;28;20535;-67
2022/08/30 01:15:50;;;;;;;10.85;4.28;;;;;;;-144.48;100.00;62369.91;5023060;28;20037;-71
2022/08/30 01:18:17;;;;;;;14.32;4.55;;;;;;;-144.48;100.00;62369.91;5030029;28;20022;-71
2022/08/30 01:21:09;;;;;;;9.35;3.85;;;;;;;-144.48;100.00;62369.91;5031297;28;20478;-70
2022/08/30 01:23:39;;;;;;;9.70;4.13;;;;;;;-144.48;100.00;62369.91;5006026;28;20084;-69
2022/08/30 01:26:05;;;;;;;12.57;4.45;;;;;;;-144.48;100.00;62369.91;5022462;28;20026;-71
2022/08/30 01:28:31;;;;;;;12.73;4.60;;;;;;;-144.48;100.00;62369.91;5011610;28;20117;-69
2022/08/30 01:30:57;;;;;;;11.82;3.78;;;;;;;-144.48;100.00;62369.91;5026637;28;20030;-71
2022/08/30 01:33:22;;;;;;;10.57;3.97;;;;;;;-144.48;100.00;62369.91;5025360;28;20052;-69
2022/08/30 01:36:00;;;;;;;16.40;4.70;;;;;;;-144.48;100.00;62369.91;5011356;28;20514;-69
2022/08/30 01:38:49;;;;;;;9.68;5.03;;;;;;;-144.48;100.00;62369.91;5021164;28;20083;-69
2022/08/30 01:41:20;;;;;;;12.50;5.13;;;;;;;-144.48;100.00;62369.91;5004674;28;20039;-68
2022/08/30 01:43:47;;;;;;;14.23;5.05;;;;;;;-144.48;100.00;62369.91;5031102;28;20033;-69
2022/08/30 01:46:15;;;;;;;9.32;4.82;;;;;;;-144.48;100.00;62369.91;5013043;28;20550;-69
2022/08/30 01:48:41;;;;;;;13.38;4.28;;;;;;;-144.48;100.00;62369.91;5016465;28;20029;-70
2022/08/30 01:51:10;;;;;;;14.40;5.10;;;;;;;-144.48;100.00;62369.91;5022135;28;20038;-68
2022/08/30 01:53:36;;;;;;;18.38;5.53;;;;;;;-144.48;100.00;62369.91;5010989;28;20359;-70
2022/08/30 01:56:01;;;;;;;12.63;5.15;;;;;;;-144.48;100.00;62369.91;5018390;28;20018;-71
2022/08/30 01:58:27;;;;;;;11.55;4.97;;;;;;;-144.48;100.00;62369.91;5030736;28;20017;-71
2022/08/30 02:00:52;;;;;;;11.50;4.80;;;;;;;-144.48;100.00;62369.91;5029290;28;20087;-69
2022/08/30 02:03:18;;;;;;;16.00;5.97;;;;;;;-144.48;100.00;62369.91;5015144;28;20022;-70
2022/08/30 02:05:44;;;;;;;13.90;4.95;;;;;;;-144.48;100.00;62369.91;5010374;28;20592;-70
2022/08/30 02:08:09;;;;;;;15.15;5.38;;;;;;;-144.48;100.00;62369.91;5025307;28;20040;-71
2022/08/30 02:10:34;;;;;;;17.20;5.70;;;;;;;-144.48;100.00;62369.91;5022144;28;20021;-71
2022/08/30 02:13:01;;;;;;;12.90;5.05;;;;;;;-144.48;100.00;62369.91;5012649;28;20450;-71
2022/08/30 02:15:27;;;;;;;11.65;5.25;;;;;;;-144.48;100.00;62369.91;5022059;28;20029;-69
2022/08/30 02:17:52;;;;;;;14.88;5.97;;;;;;;-144.48;100.00;62369.91;5011889;28;20359;-70
2022/08/30 02:20:18;;;;;;;10.02;5.22;;;;;;;-144.48;100.00;62369.91;5030050;28;20025;-70
2022/08/30 02:22:45;;;;;;;12.88;5.13;;;;;;;-144.48;100.00;62369.91;5015657;28;20017;-70
2022/08/30 02:25:10;;;;;;;12.60;4.88;;;;;;;-144.48;100.00;62369.91;5010337;28;20026;-70
2022/08/30 02:27:36;;;;;;;16.45;5.07;;;;;;;-144.48;100.00;62369.91;5024894;28;20025;-70
2022/08/30 02:30:04;;;;;;;11.82;5.28;;;;;;;-144.48;100.00;62369.91;5021892;28;20049;-71
2022/08/30 02:32:29;;;;;;;15.55;5.28;;;;;;;-144.48;100.00;62369.91;5010093;28;20352;-72
2022/08/30 02:34:54;;;;;;;14.40;5.13;;;;;;;-144.48;100.00;62369.91;5009919;28;20022;-66
2022/08/30 02:37:20;;;;;;;14.40;5.25;;;;;;;-144.48;100.00;62369.91;5012596;28;20050;-70
2022/08/30 02:39:46;;;;;;;13.88;5.30;;;;;;;-144.48;100.00;62369.91;5010147;28;20336;-69
2022/08/30 02:42:11;;;;;;;17.45;5.07;;;;;;;-144.48;100.00;62369.91;5023325;28;20037;-67
2022/08/30 02:44:36;;;;;;;11.68;5.18;;;;;;;-144.48;100.00;62369.91;5018224;28;20022;-70
2022/08/30 02:47:02;;;;;;;13.10;5.32;;;;;;;-144.48;100.00;62369.91;5003486;28;20022;-69
2022/08/30 02:49:28;;;;;;;11.40;5.05;;;;;;;-144.48;100.00;62369.91;5017046;28;20091;-70
2022/08/30 02:51:53;;;;;;;16.25;5.38;;;;;;;-144.48;100.00;62369.91;5024504;28;20025;-69
2022/08/30 02:54:19;;;;;;;9.57;5.20;;;;;;;-144.48;100.00;62369.91;5029635;28;20394;-69
2022/08/30 02:56:48;;;;;;;10.65;5.38;;;;;;;-144.48;100.00;62369.91;5014585;28;20056;-67
2022/08/30 02:59:15;;;;;;;12.63;5.32;;;;;;;-144.48;100.00;62369.91;5018457;28;20155;-68
2022/08/30 03:01:40;;;;;;;12.20;5.72;;;;;;;-144.48;100.00;62369.91;5016052;28;20053;-68
2022/08/30 03:04:06;;;;;;;16.73;6.15;;;;;;;-144.48;100.00;62369.91;5021109;28;20143;-68
2022/08/30 03:06:32;;;;;;;15.20;6.25;;;;;;;-144.48;100.00;62369.91;5024099;28;20026;-69
2022/08/30 03:08:57;;;;;;;13.73;4.63;;;;;;;-144.48;100.00;62369.91;5029818;28;20028;-69
2022/08/30 03:11:22;;;;;;;10.77;5.07;;;;;;;-144.48;100.00;62369.91;5012974;28;20041;-68
2022/08/30 03:13:48;;;;;;;14.15;5.15;;;;;;;-144.48;100.00;62369.91;5009649;28;20057;-69
2022/08/30 03:16:14;;;;;;;15.13;6.00;;;;;;;-144.48;100.00;62369.91;5023628;28;20021;-69
2022/08/30 03:18:41;;;;;;;14.68;5.18;;;;;;;-144.48;100.00;62369.91;5021131;28;20037;-68
2022/08/30 03:21:12;;;;;;;10.75;4.30;;;;;;;-144.48;100.00;62369.91;5009544;28;20029;-70
2022/08/30 03:23:39;;;;;;;9.70;4.47;;;;;;;-144.48;100.00;62369.91;5017989;28;20032;-71
2022/08/30 03:26:06;;;;;;;9.95;5.15;;;;;;;-144.48;100.00;62369.91;5013188;28;20025;-69
2022/08/30 03:28:31;;;;;;;11.75;5.00;;;;;;;-144.48;100.00;62369.91;5009433;28;20029;-70
2022/08/30 03:30:56;;;;;;;14.27;5.35;;;;;;;-144.48;100.00;62369.91;5011493;28;20026;-69
2022/08/30 03:33:22;;;;;;;11.48;5.00;;;;;;;-144.48;100.00;62369.91;5020372;28;20025;-71
2022/08/30 03:35:48;;;;;;;11.95;5.35;;;;;;;-144.48;100.00;62369.91;5024355;28;20017;-71
2022/08/30 03:38:14;;;;;;;13.63;5.60;;;;;;;-144.48;100.00;62369.91;5028798;28;20430;-70
2022/08/30 03:40:39;;;;;;;17.75;5.32;;;;;;;-144.48;100.00;62369.91;5015557;28;20026;-70
2022/08/30 03:43:05;;;;;;;7.78;4.32;;;;;;;-144.48;100.00;62369.91;5020394;28;20105;-69
2022/08/30 03:45:30;;;;;;;12.15;5.32;;;;;;;-144.48;100.00;62369.91;5005268;28;20116;-69
2022/08/30 03:47:55;;;;;;;13.05;5.13;;;;;;;-144.48;100.00;62369.91;5006862;28;20071;-69
2022/08/30 03:50:21;;;;;;;13.52;6.00;;;;;;;-144.48;100.00;62369.91;5024967;28;20433;-69
2022/08/30 03:52:47;;;;;;;8.57;5.13;;;;;;;-144.48;100.00;62369.91;5029077;28;20036;-70
2022/08/30 03:55:13;;;;;;;12.60;5.80;;;;;;;-144.48;100.00;62369.91;5028577;28;20038;-69
2022/08/30 03:57:41;;;;;;;15.20;6.22;;;;;;;-144.48;100.00;62369.91;5028322;28;20017;-69
2022/08/30 04:00:07;;;;;;;12.18;5.55;;;;;;;-144.48;100.00;62369.91;5028638;28;20100;-69
2022/08/30 04:02:33;;;;;;;11.35;6.07;;;;;;;-144.48;100.00;62369.91;5032444;28;20038;-70
2022/08/30 04:04:58;;;;;;;18.48;7.72;;;;;;;-144.48;100.00;62369.91;5023763;28;20025;-69
2022/08/30 04:07:24;;;;;;;14.82;7.13;;;;;;;-144.48;100.00;62369.91;5011209;28;20041;-69
2022/08/30 04:09:49;;;;;;;15.50;7.45;;;;;;;-144.48;100.00;62369.91;5026590;28;20033;-69
2022/08/30 04:12:14;;;;;;;15.27;6.95;;;;;;;-144.48;100.00;62369.91;5032540;28;20048;-69
2022/08/30 04:14:40;;;;;;;16.52;7.10;;;;;;;-144.48;100.00;62369.91;5032590;28;20025;-71
2022/08/30 04:17:05;;;;;;;16.42;7.00;;;;;;;-144.48;100.00;62369.91;5031681;28;20026;-70
2022/08/30 04:19:30;;;;;;;13.60;6.93;;;;;;;-144.48;100.00;62369.91;5016724;28;20026;-69
2022/08/30 04:21:56;;;;;;;21.75;8.95;;;;;;;-144.48;100.00;62369.91;5011320;28;20018;-69
2022/08/30 04:24:22;;;;;;;24.27;7.40;;;;;;;-144.48;100.00;62369.91;5021674;28;20022;-69
2022/08/30 04:26:48;;;;;;;23.33;7.22;;;;;;;-144.48;100.00;62369.91;5012909;28;20034;-71
2022/08/30 04:29:16;;;;;;;29.10;7.53;;;;;;;-144.48;100.00;62369.91;5017067;28;20029;-67
2022/08/30 04:31:42;;;;;;;23.73;7.70;;;;;;;-144.48;100.00;62369.91;5023382;28;20121;-69
2022/08/30 04:34:09;;;;;;;17.83;7.65;;;;;;;-144.48;100.00;62369.91;5016158;28;20474;-68
2022/08/30 04:36:34;;;;;;;14.52;6.68;;;;;;;-144.48;100.00;62369.91;5019976;28;20021;-69
2022/08/30 04:39:00;;;;;;;16.42;7.15;;;;;;;-144.48;100.00;62369.91;5032219;28;20036;-68
2022/08/30 04:41:25;;;;;;;13.85;7.10;;;;;;;-144.48;100.00;62369.91;5020047;28;20037;-73
2022/08/30 04:43:50;;;;;;;20.83;7.10;;;;;;;-144.48;100.00;62369.91;5016021;28;20025;-69
2022/08/30 04:46:17;;;;;;;14.77;7.30;;;;;;;-144.48;100.00;62369.91;5019565;28;20026;-71
2022/08/30 04:48:45;;;;;;;16.25;6.97;;;;;;;-144.48;100.00;62369.91;5023335;28;20026;-68
2022/08/30 04:51:13;;;;;;;12.20;6.75;;;;;;;-144.48;100.00;62369.91;5011826;28;20022;-70
2022/08/30 04:53:40;;;;;;;16.13;7.45;;;;;;;-144.48;100.00;62369.91;5016347;28;20030;-70
2022/08/30 04:56:15;;;;;;;15.23;6.40;;;;;;;-144.48;100.00;62369.91;5026044;28;20136;-72
2022/08/30 04:58:44;;;;;;;13.13;6.43;;;;;;;-144.48;100.00;62369.91;5011666;28;20538;-71
2022/08/30 05:01:22;;;;;;;13.75;8.48;;;;;;;-144.48;100.00;62369.91;5012059;28;20030;-75
2022/08/30 05:03:49;;;;;;;15.05;7.72;;;;;;;-144.48;100.00;62369.91;4998605;28;20041;-73
2022/08/30 05:06:15;;;;;;;20.20;8.63;;;;;;;-144.48;100.00;62369.91;5018831;28;20060;-73
2022/08/30 05:08:41;;;;;;;30.38;9.45;;;;;;;-144.48;100.00;62369.91;5010431;28;20030;-74
2022/08/30 05:11:07;;;;;;;13.13;7.45;;;;;;;-144.48;100.00;62369.91;5025029;28;20017;-75
2022/08/30 05:13:33;;;;;;;16.70;7.30;;;;;;;-144.48;100.00;62369.91;5030688;28;20078;-72
2022/08/30 05:16:00;;;;;;;14.60;7.18;;;;;;;-144.48;100.00;62369.91;5015721;28;20105;-74
2022/08/30 05:18:26;;;;;;;15.07;7.97;;;;;;;-144.48;100.00;62369.91;5010663;28;20104;-74
2022/08/30 05:21:24;;;;;;;16.13;7.22;;;;;;;-144.48;100.00;62369.91;5021106;28;20033;-74
2022/08/30 05:23:49;;;;;;;13.80;7.57;;;;;;;-144.48;100.00;62369.91;5005147;28;20022;-75
2022/08/30 05:26:17;;;;;;;23.75;8.70;;;;;;;-144.48;100.00;62369.91;5020527;28;20641;-75
2022/08/30 05:28:43;;;;;;;16.90;7.95;;;;;;;-144.48;100.00;62369.91;5011474;28;20029;-73
2022/08/30 05:31:18;;;;;;;21.60;9.05;;;;;;;-144.48;100.00;62369.91;5011870;28;20057;-73
2022/08/30 05:33:44;;;;;;;15.30;7.70;;;;;;;-144.48;100.00;62369.91;5008095;28;20017;-71
2022/08/30 05:36:12;;;;;;;15.85;8.50;;;;;;;-144.48;100.00;62369.91;5025768;28;20062;-73
2022/08/30 05:38:38;;;;;;;20.88;9.48;;;;;;;-144.48;100.00;62369.91;5022668;28;20112;-72
2022/08/30 05:41:04;;;;;;;24.27;10.02;;;;;;;-144.48;100.00;62369.91;5011028;28;20036;-71
2022/08/30 05:43:30;;;;;;;19.15;8.70;;;;;;;-144.48;100.00;62369.91;5037382;23;20049;-67
2022/08/30 05:45:59;;;;;;;28.92;8.23;;;;;;;-144.48;100.00;62369.91;5030558;28;20415;-67
2022/08/30 05:48:25;;;;;;;18.77;8.63;;;;;;;-144.48;100.00;62369.91;5030972;28;20025;-67
2022/08/30 05:50:50;;;;;;;17.45;9.30;;;;;;;-144.48;100.00;62369.91;5030238;28;20026;-66
2022/08/30 05:53:15;;;;;;;16.92;8.98;;;;;;;-144.48;100.00;62369.91;5023325;28;20037;-67
2022/08/30 05:55:41;;;;;;;23.42;8.45;;;;;;;-144.48;100.00;62369.91;5023018;28;20390;-66
2022/08/30 05:58:06;;;;;;;19.42;9.23;;;;;;;-144.48;100.00;62369.91;5021716;28;20022;-67
2022/08/30 06:00:31;;;;;;;18.23;9.48;;;;;;;-144.48;100.00;62369.91;5022821;28;20574;-67
2022/08/30 06:02:57;;;;;;;21.08;9.85;;;;;;;-144.48;100.00;62369.91;5016609;28;20486;-68
2022/08/30 06:05:23;;;;;;;21.63;9.60;;;;;;;-144.48;100.00;62369.91;5017199;28;20483;-67
2022/08/30 06:07:48;;;;;;;25.73;10.13;;;;;;;-144.48;100.00;62369.91;5029762;28;20029;-66
2022/08/30 06:10:14;;;;;;;22.65;10.45;;;;;;;-144.48;100.00;62369.91;5029968;28;20029;-66
2022/08/30 06:12:39;;;;;;;28.10;9.75;;;;;;;-144.48;100.00;62369.91;5009873;28;20036;-67
2022/08/30 06:15:05;;;;;;;22.95;9.75;;;;;;;-144.48;100.00;62369.91;5023409;28;20049;-68
2022/08/30 06:17:31;;;;;;;15.70;8.93;;;;;;;-144.48;100.00;62369.91;5030140;28;20036;-67
2022/08/30 06:19:56;;;;;;;38.85;10.45;;;;;;;-144.48;100.00;62369.91;5017791;28;20030;-68
2022/08/30 06:22:21;;;;;;;20.48;9.73;;;;;;;-144.48;100.00;62369.91;5002130;28;20049;-68
2022/08/30 06:24:47;;;;;;;17.73;9.30;;;;;;;-144.48;100.00;62369.91;5029697;28;20021;-68
2022/08/30 06:27:12;;;;;;;19.23;9.43;;;;;;;-144.48;100.00;62369.91;5016523;28;20065;-67
2022/08/30 06:29:38;;;;;;;21.85;10.93;;;;;;;-144.48;100.00;62369.91;5022739;28;20433;-69
2022/08/30 06:32:03;;;;;;;30.92;10.55;;;;;;;-144.48;100.00;62369.91;5011825;28;20041;-68
2022/08/30 06:34:29;;;;;;;18.80;9.95;;;;;;;-144.48;100.00;62369.91;5014508;28;20064;-65
2022/08/30 06:36:54;;;;;;;16.40;10.20;;;;;;;-144.48;100.00;62369.91;5015006;28;20487;-67
2022/08/30 06:39:20;;;;;;;23.65;10.10;;;;;;;-144.48;100.00;62369.91;5010036;28;20105;-68
2022/08/30 06:41:45;;;;;;;22.40;11.73;;;;;;;-144.48;100.00;62369.91;5010964;28;20337;-69
2022/08/30 06:44:10;;;;;;;21.00;11.15;;;;;;;-144.48;100.00;62369.91;5029776;28;20087;-67
2022/08/30 06:46:37;;;;;;;23.95;10.82;;;;;;;-144.48;100.00;62369.91;5016137;28;20030;-69
2022/08/30 06:49:05;;;;;;;24.25;12.55;;;;;;;-144.48;100.00;62369.91;5017384;28;20029;-70
2022/08/30 06:51:33;;;;;;;22.88;11.40;;;;;;;-144.48;100.00;62369.91;5030334;28;20387;-68
2022/08/30 06:54:00;;;;;;;19.35;10.95;;;;;;;-144.48;100.00;62369.91;5029608;28;20036;-68
2022/08/30 06:56:26;;;;;;;22.02;12.02;;;;;;;-144.48;100.00;62369.91;5016787;28;20040;-68
2022/08/30 06:58:51;;;;;;;23.42;11.02;;;;;;;-144.48;100.00;62369.91;5029859;28;20075;-71
2022/08/30 07:01:20;;;;;;;24.33;11.93;;;;;;;-144.48;100.00;62369.91;5028452;28;20029;-67
2022/08/30 07:03:46;;;;;;;;;;;;;;;-144.48;100.00;62369.91;5008015;28;20029;-69
2022/08/30 07:06:12;;;;;;;18.40;10.52;;;;;;;-144.48;100.00;62369.91;5009159;28;19960;-69
2022/08/30 07:08:38;;;;;;;26.25;10.77;;;;;;;-144.48;100.00;62369.91;5008996;28;20490;-68
2022/08/30 07:11:05;;;;;;;21.15;10.50;;;;;;;-144.48;100.00;62369.91;5008637;28;20033;-69
2022/08/30 07:13:31;;;;;;;24.42;9.95;;;;;;;-144.48;100.00;62369.91;5009709;28;20029;-68
2022/08/30 07:15:56;;;;;;;15.07;9.65;;;;;;;-144.48;100.00;62369.91;5023103;28;20482;-69
2022/08/30 07:21:12;;;;;;;16.35;8.85;;;;;;;-144.48;100.00;62369.91;5008136;28;20029;-70
2022/08/30 07:23:37;;;;;;;19.75;9.68;;;;;;;-144.48;100.00;62369.91;5002279;28;20068;-69
2022/08/30 07:26:05;;;;;;;20.23;9.88;;;;;;;-144.48;100.00;62369.91;5008375;28;20022;-68
2022/08/30 07:28:30;;;;;;;30.33;11.90;;;;;;;-144.48;100.00;62369.91;5010305;28;20052;-69
2022/08/30 07:30:56;;;;;;;19.08;9.90;;;;;;;-144.48;100.00;62369.91;5028281;28;20064;-70
2022/08/30 07:33:21;;;;;;;19.98;8.50;;;;;;;-144.48;100.00;62369.91;5017406;28;20583;-67
2022/08/30 07:35:47;;;;;;;16.33;8.65;;;;;;;-144.48;100.00;62369.91;5016261;28;20075;-70
2022/08/30 07:38:13;;;;;;;19.33;8.55;;;;;;;-144.48;100.00;62369.91;5031534;28;20060;-69
2022/08/30 07:40:39;;;;;;;17.50;8.57;;;;;;;-144.48;100.00;62369.91;5031930;28;20062;-69
2022/08/30 07:43:05;;;;;;;16.35;8.75;;;;;;;-144.48;100.00;62369.91;5032954;28;20247;-69
2022/08/30 07:45:31;;;;;;;19.73;9.07;;;;;;;-144.48;100.00;62369.91;5014238;28;20594;-70
2022/08/30 07:47:56;;;;;;;19.90;8.68;;;;;;;-144.48;100.00;62369.91;5024452;28;20048;-67
2022/08/30 07:50:22;;;;;;;16.17;8.68;;;;;;;-144.48;100.00;62369.91;5017973;28;20052;-68
2022/08/30 07:52:47;;;;;;;18.35;8.60;;;;;;;-144.48;100.00;62369.91;5021604;28;20034;-68
2022/08/30 07:55:12;;;;;;;18.70;8.48;;;;;;;-144.48;100.00;62369.91;5026570;28;20099;-68
2022/08/30 07:57:38;;;;;;;22.77;8.23;;;;;;;-144.48;100.00;62369.91;5013686;28;20054;-68
2022/08/30 08:00:05;;;;;;;17.73;8.18;;;;;;;-144.48;100.00;62369.91;5031181;28;20025;-68
2022/08/30 08:02:31;;;;;;;15.35;7.97;;;;;;;-144.48;100.00;62369.91;5032551;28;20025;-68
2022/08/30 08:04:57;;;;;;;18.75;8.38;;;;;;;-144.48;100.00;62369.91;5008967;28;20175;-68
2022/08/30 08:07:22;;;;;;;20.25;7.28;;;;;;;-144.48;100.00;62369.91;4997437;28;20057;-68
2022/08/30 08:09:47;;;;;;;16.13;8.55;;;;;;;-144.48;100.00;62369.91;4999136;28;20165;-68
2022/08/30 08:12:13;;;;;;;16.77;8.88;;;;;;;-144.48;100.00;62369.91;4995316;28;21141;-67
2022/08/30 08:14:40;;;;;;;15.68;7.35;;;;;;;-144.48;100.00;62369.91;4998932;28;20061;-68
2022/08/30 08:17:05;;;;;;;19.27;7.97;;;;;;;-144.48;100.00;62369.91;4994724;28;20022;-69
2022/08/30 08:19:31;;;;;;;13.55;7.80;;;;;;;-144.48;100.00;62369.91;4995506;28;20037;-69
2022/08/30 08:21:59;;;;;;;14.80;7.28;;;;;;;-144.48;100.00;62369.91;4995079;28;20018;-67
2022/08/30 08:24:26;;;;;;;17.93;8.83;;;;;;;-144.48;100.00;62369.91;4998223;28;20129;-69
2022/08/30 08:26:51;;;;;;;17.45;7.13;;;;;;;-144.48;100.00;62369.91;4995620;28;20288;-69
2022/08/30 08:29:17;;;;;;;12.77;7.90;;;;;;;-144.48;100.00;62369.91;4997375;28;20045;-70
2022/08/30 08:31:44;;;;;;;16.17;6.88;;;;;;;-144.48;100.00;62369.91;4997550;28;20025;-69
2022/08/30 08:34:10;;;;;;;17.80;6.72;;;;;;;-144.48;100.00;62369.91;4996688;28;20026;-66
2022/08/30 08:36:35;;;;;;;18.35;6.75;;;;;;;-144.48;100.00;62369.91;4992788;28;20069;-69
2022/08/30 08:39:03;;;;;;;20.58;8.73;;;;;;;-144.48;100.00;62369.91;5001190;28;20303;-68
2022/08/30 08:41:49;;;;;;;13.38;8.30;;;;;;;-144.48;100.00;62369.91;4998840;28;20072;-69
2022/08/30 08:44:15;;;;;;;15.90;6.85;;;;;;;-144.48;100.00;62369.91;4998940;28;20057;-69
2022/08/30 08:46:53;;;;;;;11.57;5.90;;;;;;;-144.48;100.00;62369.91;4995021;28;20034;-68
2022/08/30 08:49:18;;;;;;;11.48;5.60;;;;;;;-144.48;100.00;62369.91;5001175;28;20490;-70
2022/08/30 08:54:55;;;;;;;12.02;5.07;;;;;;;-144.48;100.00;62369.91;4992577;28;20037;-69
2022/08/30 08:57:20;;;;;;;12.57;4.72;;;;;;;-144.48;100.00;62369.91;4995761;28;20130;-68
2022/08/30 08:59:46;;;;;;;11.35;4.32;;;;;;;-144.48;100.00;62369.91;4993820;28;20125;-70
2022/08/30 09:02:45;;;;;;;14.13;5.43;;;;;;;-144.48;100.00;62369.91;4994428;28;20302;-70
2022/08/30 09:05:17;;;;;;;14.65;5.95;;;;;;;-144.48;100.00;62369.91;4991585;28;20515;-70
2022/08/30 09:07:47;;;;;;;8.05;4.85;;;;;;;-144.48;100.00;62369.91;4995426;28;20515;-69
2022/08/30 09:10:12;;;;;;;20.08;5.85;;;;;;;-144.48;100.00;62369.91;4997245;28;20041;-67
2022/08/30 09:12:38;;;;;;;18.45;4.55;;;;;;;-144.48;100.00;62369.91;4987993;28;20034;-70
2022/08/30 09:15:27;;;;;;;11.75;4.20;;;;;;;-144.48;100.00;62369.91;4995475;28;20033;-69
2022/08/30 09:17:54;;;;;;;13.15;4.57;;;;;;;-144.48;100.00;62369.91;4996368;28;20406;-69
2022/08/30 09:20:30;;;;;;;16.20;4.53;;;;;;;-144.48;100.00;62369.91;4994071;28;20345;-68
2022/08/30 09:22:56;;;;;;;14.57;4.63;;;;;;;-144.48;100.00;62369.91;4996505;28;20034;-70
2022/08/30 09:25:26;;;;;;;11.27;3.95;;;;;;;-144.48;100.00;62369.91;5017723;28;20057;-68
2022/08/30 09:27:54;;;;;;;18.50;3.80;;;;;;;-144.48;100.00;62369.91;4995631;28;20169;-70
2022/08/30 09:30:26;;;;;;;112.72;24.88;;;;;;;-144.48;100.00;62369.91;5013989;28;20151;-69
2022/08/30 09:33:00;;;;;;;10.73;3.58;;;;;;;-144.48;100.00;62369.91;4994650;28;20042;-68
2022/08/30 09:35:43;;;;;;;9.80;3.47;;;;;;;-144.48;100.00;62369.91;4995274;28;20065;-69
2022/08/30 09:38:16;;;;;;;6.53;3.03;;;;;;;-144.48;100.00;62369.91;4993413;28;20105;-69
2022/08/30 09:40:46;;;;;;;12.48;3.50;;;;;;;-144.48;100.00;62369.91;4995381;28;20026;-69
2022/08/30 09:43:17;;;;;;;8.43;3.40;;;;;;;-144.48;100.00;62369.91;4995670;28;20038;-70
2022/08/30 09:46:02;;;;;;;17.13;4.60;;;;;;;-144.48;100.00;62369.91;4994217;28;20065;-70
2022/08/30 09:48:39;;;;;;;11.88;3.78;;;;;;;-144.48;100.00;62369.91;4997511;28;20034;-68
2022/08/30 09:51:10;;;;;;;10.85;3.58;;;;;;;-144.48;100.00;62369.91;4997007;28;20026;-70
2022/08/30 09:53:48;;;;;;;10.73;3.42;;;;;;;-144.48;100.00;62369.91;4994116;28;20056;-70
2022/08/30 09:56:38;;;;;;;10.70;3.60;;;;;;;-144.48;100.00;62369.91;4992058;28;20101;-68
2022/08/30 09:59:31;;;;;;;13.55;3.88;;;;;;;-144.48;100.00;62369.91;4995082;28;20267;-69
2022/08/30 10:02:23;;;;;;;26.85;5.80;;;;;;;-144.48;100.00;62369.91;4996084;28;20121;-69
2022/08/30 10:05:01;;;;;;;16.58;4.65;;;;;;;-144.48;100.00;62369.91;4997098;28;20563;-68
2022/08/30 10:07:38;;;;;;;16.30;4.05;;;;;;;-144.48;100.00;62369.91;4993626;28;20030;-67
2022/08/30 10:10:15;;;;;;;18.27;4.05;;;;;;;-144.48;100.00;62369.91;4997641;28;20058;-70
2022/08/30 10:13:04;;;;;;;12.00;3.70;;;;;;;-144.48;100.00;62369.91;4997933;28;20072;-71
2022/08/30 10:15:50;;;;;;;15.68;4.00;;;;;;;-144.48;100.00;62369.91;4996417;28;20262;-69
2022/08/30 10:18:24;;;;;;;10.85;3.72;;;;;;;-144.48;100.00;62369.91;4993887;28;20038;-68
2022/08/30 10:21:04;;;;;;;9.88;3.70;;;;;;;-144.48;100.00;62369.91;5012804;28;20507;-71
2022/08/30 10:23:49;;;;;;;16.17;4.57;;;;;;;-144.48;100.00;62369.91;4996495;28;20053;-70
2022/08/30 10:26:27;;;;;;;24.27;4.80;;;;;;;-144.48;100.00;62369.91;4999662;28;20549;-70
2022/08/30 10:29:01;;;;;;;9.83;3.83;;;;;;;-144.48;100.00;62369.91;4999354;28;20048;-70
2022/08/30 10:31:35;;;;;;;20.75;5.80;;;;;;;-144.48;100.00;62369.91;4996048;28;20513;-68
2022/08/30 10:34:12;;;;;;;14.85;4.55;;;;;;;-144.48;100.00;62369.91;4994048;28;20117;-69
2022/08/30 10:36:46;;;;;;;14.18;4.50;;;;;;;-144.48;100.00;62369.91;4993865;28;20029;-69
2022/08/30 10:39:21;;;;;;;12.07;4.25;;;;;;;-144.48;100.00;62369.91;4996555;28;20349;-70
2022/08/30 10:41:55;;;;;;;13.10;4.20;;;;;;;-144.48;100.00;62369.91;4995528;28;20396;-67
2022/08/30 10:44:30;;;;;;;13.60;4.93;;;;;;;-144.48;100.00;62369.91;4993262;28;20050;-72
2022/08/30 10:47:07;;;;;;;20.38;4.57;;;;;;;-144.48;100.00;62369.91;4996173;28;20026;-70
2022/08/30 10:49:43;;;;;;;17.23;4.55;;;;;;;-144.48;100.00;62369.91;4992936;28;20033;-69
2022/08/30 10:52:48;;;;;;;11.98;4.32;;;;;;;-144.48;100.00;62369.91;4975187;28;20049;-69
2022/08/30 10:55:17;;;;;;;20.15;4.60;;;;;;;-144.48;100.00;62369.91;4995699;28;20530;-70
2022/08/30 10:57:44;;;;;;;14.45;4.82;;;;;;;-144.48;100.00;62369.91;4992781;28;20049;-70
2022/08/30 11:00:12;;;;;;;13.88;4.13;;;;;;;-144.48;100.00;62369.91;4991185;28;20123;-72
2022/08/30 11:03:10;;;;;;;12.45;4.68;;;;;;;-144.48;100.00;62369.91;4991597;28;20026;-69
2022/08/30 11:05:56;;;;;;;9.63;3.25;;;;;;;-144.48;100.00;62369.91;4992260;28;20117;-68
2022/08/30 11:08:28;;;;;;;9.85;3.38;;;;;;;-144.48;100.00;62369.91;4995329;28;20040;-68
2022/08/30 11:11:19;;;;;;;17.48;4.40;;;;;;;-144.48;100.00;62369.91;4990450;28;20140;-70
2022/08/30 11:13:46;;;;;;;9.50;3.10;;;;;;;-144.48;100.00;62369.91;5000021;28;20593;-70
2022/08/30 11:16:17;;;;;;;11.25;3.10;;;;;;;-144.48;100.00;62369.91;4993864;28;20137;-71